Time;durP1;ratioP1;P1;durP2;ratioP2;P2;SDS_P1;SDS_P2;PMS_P1;PMS_P2;Temp;Humidity;BMP_temperature;BMP_pressure;BME280_temperature;BME280_humidity;BME280_pressure;Samples;Min_cycle;Max_cycle;Signal;HPM_P1;HPM_P2
2024/03/19 00:00:48;;;;;;;45.53;28.00;;;;;;;;;;5093012;28;20084;-73
2024/03/19 00:03:14;;;;;;;48.40;27.95;;;;;;;;;;5091298;28;20041;-74
2024/03/19 00:05:40;;;;;;;47.53;26.05;;;;;;;;;;5092799;28;20051;-74
2024/03/19 00:08:07;;;;;;;42.08;25.60;;;;;;;;;;5091103;28;20043;-74
2024/03/19 00:10:33;;;;;;;44.05;25.13;;;;;;;;;;5092533;28;20410;-74
2024/03/19 00:12:59;;;;;;;45.65;25.88;;;;;;;;;;5091263;28;20376;-73
2024/03/19 00:15:25;;;;;;;41.60;25.10;;;;;;;;;;5092550;28;20024;-73
2024/03/19 00:17:52;;;;;;;48.38;26.48;;;;;;;;;;5092711;28;20024;-72
2024/03/19 00:20:19;;;;;;;44.38;23.80;;;;;;;;;;5092797;28;20055;-72
2024/03/19 00:22:45;;;;;;;44.40;25.25;;;;;;;;;;5092435;28;20487;-72
2024/03/19 00:25:11;;;;;;;41.08;23.73;;;;;;;;;;5091137;28;20092;-73
2024/03/19 00:27:37;;;;;;;41.08;24.35;;;;;;;;;;5092728;28;20031;-73
2024/03/19 00:30:03;;;;;;;40.75;24.27;;;;;;;;;;5092405;28;20027;-73
2024/03/19 00:32:32;;;;;;;43.85;23.88;;;;;;;;;;5092555;28;20024;-73
2024/03/19 00:34:58;;;;;;;41.58;24.40;;;;;;;;;;5092274;28;20016;-73
2024/03/19 00:37:24;;;;;;;46.35;24.77;;;;;;;;;;5092271;28;20016;-71
2024/03/19 00:39:50;;;;;;;39.55;23.70;;;;;;;;;;5092234;28;20024;-72
2024/03/19 00:42:16;;;;;;;43.33;25.33;;;;;;;;;;5092189;28;20027;-73
2024/03/19 00:44:42;;;;;;;39.70;24.05;;;;;;;;;;5092368;28;20479;-73
2024/03/19 00:47:09;;;;;;;50.88;25.90;;;;;;;;;;5092097;28;20020;-73
2024/03/19 00:49:35;;;;;;;41.70;24.25;;;;;;;;;;5090911;28;20509;-72
2024/03/19 00:52:01;;;;;;;40.67;23.85;;;;;;;;;;5092320;28;20564;-72
2024/03/19 00:54:27;;;;;;;37.60;24.23;;;;;;;;;;5092005;28;20016;-73
2024/03/19 00:56:53;;;;;;;37.33;23.15;;;;;;;;;;5090909;28;20024;-73
2024/03/19 00:59:19;;;;;;;44.20;24.25;;;;;;;;;;5090743;28;20070;-72
2024/03/19 01:01:45;;;;;;;44.20;25.38;;;;;;;;;;5090942;28;20097;-72
2024/03/19 01:04:12;;;;;;;45.65;25.38;;;;;;;;;;5092271;28;20028;-73
2024/03/19 01:06:39;;;;;;;45.35;25.38;;;;;;;;;;5092114;28;20048;-72
2024/03/19 01:09:05;;;;;;;40.25;23.92;;;;;;;;;;5090718;28;20024;-72
2024/03/19 01:11:32;;;;;;;40.75;24.33;;;;;;;;;;5092438;28;20034;-73
2024/03/19 01:13:59;;;;;;;40.72;23.77;;;;;;;;;;5092195;28;20278;-73
2024/03/19 01:16:25;;;;;;;41.58;22.73;;;;;;;;;;5092241;28;20024;-73
2024/03/19 01:18:51;;;;;;;47.10;24.63;;;;;;;;;;5093045;28;20082;-72
2024/03/19 01:21:17;;;;;;;43.33;23.90;;;;;;;;;;5092519;28;20032;-72
2024/03/19 01:23:45;;;;;;;38.50;21.75;;;;;;;;;;5093167;28;20020;-73
2024/03/19 01:26:11;;;;;;;36.83;21.00;;;;;;;;;;5093696;28;20024;-73
2024/03/19 01:28:37;;;;;;;39.90;21.23;;;;;;;;;;5096006;28;20028;-73
2024/03/19 01:31:03;;;;;;;37.30;21.35;;;;;;;;;;5095951;28;20024;-73
2024/03/19 01:33:29;;;;;;;41.55;23.77;;;;;;;;;;5096055;28;20115;-74
2024/03/19 01:35:56;;;;;;;44.28;25.33;;;;;;;;;;5095598;28;20447;-73
2024/03/19 01:38:25;;;;;;;37.83;21.60;;;;;;;;;;5095583;28;20029;-73
2024/03/19 01:40:51;;;;;;;40.33;21.60;;;;;;;;;;5095803;28;20032;-73
2024/03/19 01:43:20;;;;;;;38.28;21.92;;;;;;;;;;5094139;28;20016;-74
2024/03/19 01:46:05;;;;;;;38.25;21.13;;;;;;;;;;5094448;28;20368;-74
2024/03/19 01:48:31;;;;;;;35.25;19.77;;;;;;;;;;5095661;28;20070;-74
2024/03/19 01:50:57;;;;;;;37.15;18.70;;;;;;;;;;5095594;28;20071;-74
2024/03/19 01:53:23;;;;;;;31.73;19.17;;;;;;;;;;5094048;28;20035;-74
2024/03/19 01:55:49;;;;;;;33.17;17.05;;;;;;;;;;5095606;28;20020;-73
2024/03/19 01:58:16;;;;;;;29.85;18.58;;;;;;;;;;5095194;28;20070;-73
2024/03/19 02:00:42;;;;;;;31.23;17.02;;;;;;;;;;5095655;28;20028;-73
2024/03/19 02:03:10;;;;;;;28.95;17.45;;;;;;;;;;5095729;28;20479;-73
2024/03/19 02:05:36;;;;;;;30.58;16.75;;;;;;;;;;5093858;28;20024;-74
2024/03/19 02:08:02;;;;;;;31.35;16.23;;;;;;;;;;5093980;28;20072;-73
2024/03/19 02:10:28;;;;;;;34.58;17.38;;;;;;;;;;5093572;28;20073;-73
2024/03/19 02:12:54;;;;;;;31.13;16.50;;;;;;;;;;5093832;28;20016;-73
2024/03/19 02:15:20;;;;;;;29.73;17.15;;;;;;;;;;5093590;28;20571;-72
2024/03/19 02:17:47;;;;;;;31.05;18.33;;;;;;;;;;5093707;28;20111;-72
2024/03/19 02:20:14;;;;;;;23.98;11.77;;;;;;;;;;5094765;28;20035;-72
2024/03/19 02:22:42;;;;;;;27.15;13.85;;;;;;;;;;5094970;28;20101;-73
2024/03/19 02:25:08;;;;;;;25.92;14.05;;;;;;;;;;5093646;28;20092;-74
2024/03/19 02:27:34;;;;;;;31.42;15.80;;;;;;;;;;5094647;28;20078;-72
2024/03/19 02:30:00;;;;;;;30.45;15.95;;;;;;;;;;5094752;28;20028;-72
2024/03/19 02:32:26;;;;;;;24.33;14.07;;;;;;;;;;5094345;28;20024;-72
2024/03/19 02:34:52;;;;;;;22.77;14.45;;;;;;;;;;5093436;28;20028;-72
2024/03/19 02:37:18;;;;;;;22.73;14.68;;;;;;;;;;5094863;28;20031;-73
2024/03/19 02:39:44;;;;;;;22.42;11.65;;;;;;;;;;5094697;28;20024;-73
2024/03/19 02:42:10;;;;;;;22.25;11.82;;;;;;;;;;5092865;28;20111;-72
2024/03/19 02:44:36;;;;;;;22.27;12.43;;;;;;;;;;5094474;28;20058;-73
2024/03/19 02:47:02;;;;;;;23.60;10.40;;;;;;;;;;5094536;28;20062;-74
2024/03/19 02:49:29;;;;;;;19.27;11.07;;;;;;;;;;5093884;28;20020;-72
2024/03/19 02:51:55;;;;;;;21.50;10.77;;;;;;;;;;5094358;28;20028;-72
2024/03/19 02:54:21;;;;;;;17.55;9.48;;;;;;;;;;5094194;28;20078;-72
2024/03/19 02:56:47;;;;;;;19.73;8.57;;;;;;;;;;5094583;28;20482;-72
2024/03/19 02:59:13;;;;;;;17.77;8.65;;;;;;;;;;5093988;28;20024;-72
2024/03/19 03:01:39;;;;;;;27.58;11.38;;;;;;;;;;5094495;28;20478;-72
2024/03/19 03:04:06;;;;;;;23.55;10.30;;;;;;;;;;5094196;28;20078;-72
2024/03/19 03:06:32;;;;;;;22.60;11.68;;;;;;;;;;5094050;28;20132;-73
2024/03/19 03:08:58;;;;;;;22.45;12.02;;;;;;;;;;5094437;28;20496;-73
2024/03/19 03:11:24;;;;;;;27.23;13.77;;;;;;;;;;5093196;28;20132;-73
2024/03/19 03:13:50;;;;;;;25.35;12.20;;;;;;;;;;5094728;28;20252;-73
2024/03/19 03:16:16;;;;;;;24.98;14.95;;;;;;;;;;5094477;28;20269;-73
2024/03/19 03:18:42;;;;;;;33.90;15.80;;;;;;;;;;5093839;28;20020;-73
2024/03/19 03:21:08;;;;;;;33.33;16.70;;;;;;;;;;5093800;28;20373;-73
2024/03/19 03:23:34;;;;;;;36.90;17.88;;;;;;;;;;5093865;28;20232;-73
2024/03/19 03:26:00;;;;;;;33.88;18.55;;;;;;;;;;5093699;28;20254;-73
2024/03/19 03:28:26;;;;;;;35.90;19.63;;;;;;;;;;5093113;28;20031;-73
2024/03/19 03:30:52;;;;;;;37.20;20.13;;;;;;;;;;5093635;28;20028;-73
2024/03/19 03:33:18;;;;;;;35.65;17.95;;;;;;;;;;5092015;28;20067;-72
2024/03/19 03:35:44;;;;;;;34.95;18.63;;;;;;;;;;5093763;28;20031;-73
2024/03/19 03:38:10;;;;;;;34.90;20.10;;;;;;;;;;5093180;28;20043;-73
2024/03/19 03:40:36;;;;;;;44.90;20.45;;;;;;;;;;5092022;28;20035;-73
2024/03/19 03:43:03;;;;;;;40.60;21.77;;;;;;;;;;5093122;28;20020;-72
2024/03/19 03:45:29;;;;;;;36.55;22.85;;;;;;;;;;5091829;28;20157;-73
2024/03/19 03:47:55;;;;;;;40.30;23.48;;;;;;;;;;5092516;28;20103;-72
2024/03/19 03:50:21;;;;;;;41.90;22.83;;;;;;;;;;5092945;28;20414;-73
2024/03/19 03:52:47;;;;;;;38.75;23.75;;;;;;;;;;5091868;28;20438;-73
2024/03/19 03:55:14;;;;;;;41.85;23.35;;;;;;;;;;5091848;28;20073;-73
2024/03/19 03:57:40;;;;;;;48.83;26.17;;;;;;;;;;5091649;28;20440;-73
2024/03/19 04:00:11;;;;;;;46.53;26.30;;;;;;;;;;5092831;28;20024;-73
2024/03/19 04:02:38;;;;;;;42.75;27.83;;;;;;;;;;5092838;28;20479;-73
2024/03/19 04:05:04;;;;;;;40.28;25.10;;;;;;;;;;5093007;28;20378;-74
2024/03/19 04:07:36;;;;;;;45.28;27.08;;;;;;;;;;5092305;28;20119;-74
2024/03/19 04:10:02;;;;;;;54.22;28.35;;;;;;;;;;5091567;28;20031;-74
2024/03/19 04:12:28;;;;;;;43.90;26.08;;;;;;;;;;5091362;28;20039;-74
2024/03/19 04:14:54;;;;;;;50.83;27.33;;;;;;;;;;5092873;28;20044;-74
2024/03/19 04:17:20;;;;;;;41.72;25.88;;;;;;;;;;5092650;28;20034;-74
2024/03/19 04:19:47;;;;;;;46.58;28.00;;;;;;;;;;5093018;28;20028;-74
2024/03/19 04:22:13;;;;;;;51.53;28.58;;;;;;;;;;5091431;28;20016;-72
2024/03/19 04:24:39;;;;;;;51.85;28.17;;;;;;;;;;5091143;28;20429;-72
2024/03/19 04:27:05;;;;;;;45.85;28.17;;;;;;;;;;5092591;28;20098;-73
2024/03/19 04:29:31;;;;;;;46.28;27.33;;;;;;;;;;5090922;28;20032;-73
2024/03/19 04:31:57;;;;;;;44.28;27.25;;;;;;;;;;5091291;28;20056;-72
2024/03/19 04:34:23;;;;;;;49.90;25.63;;;;;;;;;;5092045;28;20020;-73
2024/03/19 04:36:49;;;;;;;47.67;28.95;;;;;;;;;;5092516;28;20061;-72
2024/03/19 04:39:17;;;;;;;42.30;26.25;;;;;;;;;;5090814;28;20024;-72
2024/03/19 04:41:43;;;;;;;51.78;28.42;;;;;;;;;;5092170;28;20020;-73
2024/03/19 04:44:10;;;;;;;51.83;30.15;;;;;;;;;;5092611;28;20012;-73
2024/03/19 04:46:36;;;;;;;52.88;29.08;;;;;;;;;;5092226;28;20100;-73
2024/03/19 04:49:02;;;;;;;43.35;26.95;;;;;;;;;;5091050;28;20127;-73
2024/03/19 04:51:29;;;;;;;49.10;28.20;;;;;;;;;;5092091;28;20024;-73
2024/03/19 04:53:55;;;;;;;52.72;28.42;;;;;;;;;;5092285;28;20016;-73
2024/03/19 04:56:21;;;;;;;44.53;28.58;;;;;;;;;;5090421;28;20119;-72
2024/03/19 04:58:47;;;;;;;46.95;28.45;;;;;;;;;;5092236;28;20089;-72
2024/03/19 05:01:14;;;;;;;52.95;30.20;;;;;;;;;;5094740;28;20120;-73
2024/03/19 05:03:41;;;;;;;46.28;26.92;;;;;;;;;;5095869;28;20035;-73
2024/03/19 05:06:08;;;;;;;45.08;28.40;;;;;;;;;;5096424;28;20480;-73
2024/03/19 05:08:34;;;;;;;48.22;28.10;;;;;;;;;;5095931;28;20016;-73
2024/03/19 05:11:00;;;;;;;46.83;28.63;;;;;;;;;;5095959;28;20032;-73
2024/03/19 05:13:26;;;;;;;51.97;28.27;;;;;;;;;;5094711;28;20032;-73
2024/03/19 05:15:52;;;;;;;49.83;29.60;;;;;;;;;;5095878;28;20387;-73
2024/03/19 05:18:18;;;;;;;48.40;29.42;;;;;;;;;;5095893;28;20145;-72
2024/03/19 05:20:44;;;;;;;47.13;28.30;;;;;;;;;;5096226;28;20038;-73
2024/03/19 05:23:10;;;;;;;46.05;27.52;;;;;;;;;;5095824;28;20118;-73
2024/03/19 05:25:36;;;;;;;51.20;28.35;;;;;;;;;;5095533;28;20051;-73
2024/03/19 05:28:02;;;;;;;47.72;28.05;;;;;;;;;;5096052;28;20055;-73
2024/03/19 05:30:30;;;;;;;47.53;29.58;;;;;;;;;;5094319;28;20415;-72
2024/03/19 05:32:56;;;;;;;46.40;29.00;;;;;;;;;;5095918;28;20114;-72
2024/03/19 05:35:22;;;;;;;53.13;32.08;;;;;;;;;;5094563;28;20107;-73
2024/03/19 05:37:48;;;;;;;56.17;30.67;;;;;;;;;;5095817;28;20081;-72
2024/03/19 05:40:14;;;;;;;51.85;28.40;;;;;;;;;;5095968;28;20028;-74
2024/03/19 05:42:40;;;;;;;49.20;29.90;;;;;;;;;;5095637;28;20012;-73
2024/03/19 05:45:08;;;;;;;47.20;28.13;;;;;;;;;;5094677;28;20103;-74
2024/03/19 05:47:34;;;;;;;50.33;29.00;;;;;;;;;;5095445;28;20387;-75
2024/03/19 05:50:00;;;;;;;46.53;28.67;;;;;;;;;;5094621;28;20390;-74
2024/03/19 05:52:26;;;;;;;52.50;29.65;;;;;;;;;;5094373;28;20455;-74
2024/03/19 05:54:52;;;;;;;47.75;29.15;;;;;;;;;;5096373;28;20020;-74
2024/03/19 05:57:19;;;;;;;45.58;29.13;;;;;;;;;;5094246;28;20065;-74
2024/03/19 05:59:45;;;;;;;48.58;28.38;;;;;;;;;;5095083;28;20089;-74
2024/03/19 06:02:11;;;;;;;57.30;28.10;;;;;;;;;;5095115;28;20101;-74
2024/03/19 06:04:37;;;;;;;46.92;29.08;;;;;;;;;;5094800;28;20375;-75
2024/03/19 06:07:04;;;;;;;45.45;28.75;;;;;;;;;;5095171;28;20051;-75
2024/03/19 06:09:30;;;;;;;48.83;27.63;;;;;;;;;;5094894;28;20024;-73
2024/03/19 06:11:57;;;;;;;45.08;26.90;;;;;;;;;;5094685;28;20031;-72
2024/03/19 06:14:23;;;;;;;42.60;25.98;;;;;;;;;;5095111;28;20077;-73
2024/03/19 06:16:49;;;;;;;47.97;29.13;;;;;;;;;;5095121;28;20027;-73
2024/03/19 06:19:16;;;;;;;48.80;27.60;;;;;;;;;;5093683;28;20365;-73
2024/03/19 06:21:43;;;;;;;42.80;26.02;;;;;;;;;;5094683;28;20104;-73
2024/03/19 06:24:09;;;;;;;45.03;27.17;;;;;;;;;;5093519;28;20061;-73
2024/03/19 06:26:35;;;;;;;40.28;25.63;;;;;;;;;;5094996;28;20172;-73
2024/03/19 06:29:03;;;;;;;44.28;25.70;;;;;;;;;;5093480;28;20027;-73
2024/03/19 06:31:29;;;;;;;43.50;28.17;;;;;;;;;;5094415;28;20075;-73
2024/03/19 06:33:55;;;;;;;46.30;28.13;;;;;;;;;;5093374;28;20054;-72
2024/03/19 06:36:21;;;;;;;49.33;27.80;;;;;;;;;;5094899;28;20059;-73
2024/03/19 06:38:47;;;;;;;52.08;28.98;;;;;;;;;;5094442;28;20127;-73
2024/03/19 06:41:13;;;;;;;42.58;26.73;;;;;;;;;;5094559;28;20488;-72
2024/03/19 06:43:40;;;;;;;44.40;25.75;;;;;;;;;;5092933;28;20525;-73
2024/03/19 06:46:06;;;;;;;42.67;26.05;;;;;;;;;;5094484;28;20021;-73
2024/03/19 06:48:32;;;;;;;42.40;26.58;;;;;;;;;;5094143;28;20020;-74
2024/03/19 06:50:59;;;;;;;46.80;26.35;;;;;;;;;;5092930;28;20024;-74
2024/03/19 06:53:27;;;;;;;42.33;26.35;;;;;;;;;;5094487;28;20028;-73
2024/03/19 06:55:53;;;;;;;42.50;26.23;;;;;;;;;;5095722;28;20405;-73
2024/03/19 06:58:19;;;;;;;45.63;26.00;;;;;;;;;;5093654;28;20356;-73
2024/03/19 07:00:47;;;;;;;42.42;26.13;;;;;;;;;;5095080;28;20030;-73
2024/03/19 07:03:13;;;;;;;48.63;26.00;;;;;;;;;;5094125;28;20027;-74
2024/03/19 07:05:39;;;;;;;45.83;26.52;;;;;;;;;;5093683;28;20020;-74
2024/03/19 07:08:05;;;;;;;46.40;26.45;;;;;;;;;;5092638;28;20115;-74
2024/03/19 07:10:32;;;;;;;51.30;26.70;;;;;;;;;;5093573;28;20036;-74
2024/03/19 07:12:58;;;;;;;36.95;24.15;;;;;;;;;;5092530;28;20539;-74
2024/03/19 07:15:24;;;;;;;45.17;25.83;;;;;;;;;;5093463;28;20399;-74
2024/03/19 07:17:51;;;;;;;41.80;25.42;;;;;;;;;;5092254;28;20486;-74
2024/03/19 07:20:21;;;;;;;51.90;28.55;;;;;;;;;;5093717;28;20452;-73
2024/03/19 07:22:47;;;;;;;36.13;20.08;;;;;;;;;;5091459;28;20028;-74
2024/03/19 07:25:14;;;;;;;44.20;25.77;;;;;;;;;;5093625;28;20113;-73
2024/03/19 07:27:43;;;;;;;41.97;25.50;;;;;;;;;;5093407;28;20084;-73
2024/03/19 07:30:11;;;;;;;43.95;25.30;;;;;;;;;;5093586;28;20103;-72
2024/03/19 07:32:37;;;;;;;44.28;25.83;;;;;;;;;;5092008;28;20035;-73
2024/03/19 07:35:04;;;;;;;39.13;24.52;;;;;;;;;;5093161;28;20069;-74
2024/03/19 07:37:30;;;;;;;41.78;26.15;;;;;;;;;;5091860;28;20123;-73
2024/03/19 07:39:57;;;;;;;41.95;26.23;;;;;;;;;;5092039;28;20353;-73
2024/03/19 07:42:23;;;;;;;44.58;27.27;;;;;;;;;;5093252;28;20021;-73
2024/03/19 07:44:50;;;;;;;43.92;25.38;;;;;;;;;;5091813;28;20024;-73
2024/03/19 07:47:16;;;;;;;37.63;24.33;;;;;;;;;;5092972;28;20418;-73
2024/03/19 07:49:42;;;;;;;41.03;25.27;;;;;;;;;;5093147;28;20020;-73
2024/03/19 07:52:08;;;;;;;39.95;23.63;;;;;;;;;;5093072;28;20032;-73
2024/03/19 07:54:34;;;;;;;39.70;24.45;;;;;;;;;;5092808;28;20023;-73
2024/03/19 07:57:00;;;;;;;38.50;23.58;;;;;;;;;;5093111;28;20012;-73
2024/03/19 07:59:26;;;;;;;39.95;25.25;;;;;;;;;;5093257;28;20375;-74
2024/03/19 08:01:52;;;;;;;36.95;23.35;;;;;;;;;;5092737;28;20024;-73
2024/03/19 08:04:20;;;;;;;40.22;23.08;;;;;;;;;;5093023;28;20030;-74
2024/03/19 08:06:46;;;;;;;40.70;24.73;;;;;;;;;;5092493;28;20097;-73
2024/03/19 08:09:12;;;;;;;40.05;24.20;;;;;;;;;;5092700;28;20448;-73
2024/03/19 08:11:38;;;;;;;36.30;23.20;;;;;;;;;;5091217;28;20036;-74
2024/03/19 08:14:18;;;;;;;40.58;23.42;;;;;;;;;;5069128;28;20898;-73
2024/03/19 08:16:44;;;;;;;32.90;22.77;;;;;;;;;;5069106;28;20033;-73
2024/03/19 08:19:10;;;;;;;39.40;22.45;;;;;;;;;;5069591;28;20079;-74
2024/03/19 08:21:36;;;;;;;34.15;23.05;;;;;;;;;;5067688;28;20111;-73
2024/03/19 08:24:03;;;;;;;38.63;23.70;;;;;;;;;;5069234;28;20029;-73
2024/03/19 08:26:31;;;;;;;38.78;22.20;;;;;;;;;;5067840;28;20024;-73
2024/03/19 08:28:57;;;;;;;35.63;19.90;;;;;;;;;;5067696;28;20033;-73
2024/03/19 08:31:23;;;;;;;30.48;18.80;;;;;;;;;;5068782;28;20021;-73
2024/03/19 08:33:49;;;;;;;26.50;17.30;;;;;;;;;;5068395;28;20040;-73
2024/03/19 08:36:15;;;;;;;27.00;17.08;;;;;;;;;;5067608;28;20127;-73
2024/03/19 08:38:41;;;;;;;29.65;17.88;;;;;;;;;;5068561;28;20027;-73
2024/03/19 08:41:07;;;;;;;31.10;17.67;;;;;;;;;;5067678;28;20025;-73
2024/03/19 08:43:34;;;;;;;30.20;18.77;;;;;;;;;;5068878;28;20044;-73
2024/03/19 08:46:00;;;;;;;29.05;16.10;;;;;;;;;;5069473;28;20071;-72
2024/03/19 08:48:26;;;;;;;23.23;15.05;;;;;;;;;;5067970;28;20021;-73
2024/03/19 08:50:52;;;;;;;22.05;13.05;;;;;;;;;;5069555;28;20025;-73
2024/03/19 08:53:18;;;;;;;25.33;15.63;;;;;;;;;;5069088;28;20119;-73
2024/03/19 08:55:44;;;;;;;24.95;15.55;;;;;;;;;;5067154;28;20475;-73
2024/03/19 08:58:10;;;;;;;20.42;13.63;;;;;;;;;;5067279;28;20032;-74
2024/03/19 09:00:39;;;;;;;20.98;13.25;;;;;;;;;;5067072;28;20025;-73
2024/03/19 09:03:08;;;;;;;18.27;10.30;;;;;;;;;;5067215;28;20469;-72
2024/03/19 09:05:34;;;;;;;18.25;11.70;;;;;;;;;;5068413;28;20048;-73
2024/03/19 09:08:00;;;;;;;15.73;8.80;;;;;;;;;;5068367;28;20017;-73
2024/03/19 09:10:26;;;;;;;16.15;7.45;;;;;;;;;;5067007;28;20028;-74
2024/03/19 09:12:52;;;;;;;13.55;6.60;;;;;;;;;;5067785;28;20365;-73
2024/03/19 09:15:19;;;;;;;14.25;7.97;;;;;;;;;;5068205;28;20032;-73
2024/03/19 09:17:45;;;;;;;11.35;6.15;;;;;;;;;;5068189;28;20095;-74
2024/03/19 09:20:11;;;;;;;9.43;5.07;;;;;;;;;;5066721;28;20111;-73
2024/03/19 09:22:37;;;;;;;8.82;4.38;;;;;;;;;;5066523;28;20381;-73
2024/03/19 09:25:04;;;;;;;15.02;5.35;;;;;;;;;;5056790;28;20465;-74
2024/03/19 09:27:30;;;;;;;7.18;3.50;;;;;;;;;;5054841;28;20036;-74
2024/03/19 09:29:56;;;;;;;12.07;4.03;;;;;;;;;;5054555;28;20017;-74
2024/03/19 09:32:22;;;;;;;6.68;2.53;;;;;;;;;;5053323;28;20469;-73
2024/03/19 09:34:49;;;;;;;4.97;2.22;;;;;;;;;;5053152;28;20029;-74
2024/03/19 09:37:15;;;;;;;8.80;2.90;;;;;;;;;;5054611;28;20027;-74
2024/03/19 09:39:41;;;;;;;7.28;2.17;;;;;;;;;;5053021;28;20108;-74
2024/03/19 09:42:15;;;;;;;4.78;2.00;;;;;;;;;;5054442;28;20053;-74
2024/03/19 09:44:44;;;;;;;6.20;2.25;;;;;;;;;;5054571;28;20024;-74
2024/03/19 09:47:16;;;;;;;6.30;2.35;;;;;;;;;;5053089;28;20021;-74
2024/03/19 09:49:42;;;;;;;6.53;1.90;;;;;;;;;;5052811;28;20060;-74
2024/03/19 09:52:08;;;;;;;5.95;1.70;;;;;;;;;;5053004;28;20021;-74
2024/03/19 09:54:34;;;;;;;5.72;2.15;;;;;;;;;;5054581;28;20036;-74
2024/03/19 09:57:03;;;;;;;4.65;1.77;;;;;;;;;;5052684;28;20021;-73
2024/03/19 09:59:29;;;;;;;4.63;2.10;;;;;;;;;;5052707;28;20021;-74
2024/03/19 10:01:56;;;;;;;5.68;1.60;;;;;;;;;;5053774;28;20017;-74
2024/03/19 10:04:22;;;;;;;3.92;1.50;;;;;;;;;;5054127;28;20021;-74
2024/03/19 10:06:48;;;;;;;5.97;2.25;;;;;;;;;;5052601;28;20632;-74
2024/03/19 10:09:16;;;;;;;3.88;1.20;;;;;;;;;;5054078;28;20224;-74
2024/03/19 10:11:42;;;;;;;3.63;1.52;;;;;;;;;;5053819;28;20024;-73
2024/03/19 10:14:10;;;;;;;5.70;1.88;;;;;;;;;;5054202;28;20041;-73
2024/03/19 10:16:50;;;;;;;6.97;2.17;;;;;;;;;;5053967;28;20510;-74
2024/03/19 10:19:19;;;;;;;5.88;1.88;;;;;;;;;;5053618;28;20133;-74
2024/03/19 10:21:45;;;;;;;5.63;1.52;;;;;;;;;;5053556;28;20028;-74
2024/03/19 10:24:15;;;;;;;7.25;2.03;;;;;;;;;;5053527;28;20117;-74
2024/03/19 10:26:41;;;;;;;;;;;;;;;;;;5053981;28;20021;-74
2024/03/19 10:29:12;;;;;;;4.75;1.50;;;;;;;;;;5052244;28;19905;-74
2024/03/19 10:31:38;;;;;;;7.78;2.92;;;;;;;;;;5053543;28;20365;-74
2024/03/19 10:34:05;;;;;;;10.05;2.90;;;;;;;;;;5053217;28;20037;-74
2024/03/19 10:36:37;;;;;;;3.55;1.77;;;;;;;;;;5052780;28;20519;-74
2024/03/19 10:39:05;;;;;;;3.13;1.73;;;;;;;;;;5054571;28;20040;-74
2024/03/19 10:41:31;;;;;;;5.55;2.15;;;;;;;;;;5053544;28;20028;-74
2024/03/19 10:44:01;;;;;;;9.38;3.50;;;;;;;;;;5053760;28;20032;-75
2024/03/19 10:46:29;;;;;;;7.15;3.25;;;;;;;;;;5053793;28;20021;-74
2024/03/19 10:48:56;;;;;;;6.55;3.58;;;;;;;;;;5053133;28;20017;-74
2024/03/19 10:51:24;;;;;;;8.15;2.60;;;;;;;;;;5051938;28;20041;-74
2024/03/19 10:53:50;;;;;;;8.10;3.80;;;;;;;;;;5052893;28;20028;-74
2024/03/19 10:56:16;;;;;;;8.88;2.92;;;;;;;;;;5053448;28;20021;-74
2024/03/19 10:58:46;;;;;;;9.35;3.05;;;;;;;;;;5051446;28;20120;-74
2024/03/19 11:01:15;;;;;;;11.43;4.68;;;;;;;;;;5053004;28;20032;-74
2024/03/19 11:03:41;;;;;;;10.90;3.80;;;;;;;;;;5051678;28;20047;-73
2024/03/19 11:06:19;;;;;;;10.40;4.65;;;;;;;;;;5052977;28;20298;-74
2024/03/19 11:08:50;;;;;;;13.27;4.32;;;;;;;;;;5052742;28;20013;-74
2024/03/19 11:11:17;;;;;;;11.82;4.05;;;;;;;;;;5052821;28;20460;-74
2024/03/19 11:13:49;;;;;;;8.95;3.22;;;;;;;;;;5052153;28;20439;-74
2024/03/19 11:16:16;;;;;;;11.07;3.60;;;;;;;;;;5052824;28;20083;-74
2024/03/19 11:18:45;;;;;;;14.43;3.83;;;;;;;;;;5052528;28;20465;-74
2024/03/19 11:21:22;;;;;;;14.48;4.50;;;;;;;;;;5051316;28;20029;-74
2024/03/19 11:23:51;;;;;;;10.52;4.45;;;;;;;;;;5051091;28;20488;-74
2024/03/19 11:26:17;;;;;;;9.38;3.03;;;;;;;;;;5052666;28;20029;-74
2024/03/19 11:28:59;;;;;;;13.18;3.13;;;;;;;;;;5051127;28;20036;-74
2024/03/19 11:31:36;;;;;;;17.17;4.68;;;;;;;;;;5052553;28;20021;-74
2024/03/19 11:34:04;;;;;;;7.32;3.33;;;;;;;;;;5052412;28;20028;-74
2024/03/19 11:36:30;;;;;;;9.52;2.58;;;;;;;;;;5051189;28;20120;-74
2024/03/19 11:38:56;;;;;;;12.65;3.85;;;;;;;;;;5050862;28;20467;-75
2024/03/19 11:41:22;;;;;;;12.13;3.70;;;;;;;;;;5051173;28;20116;-74
2024/03/19 11:43:48;;;;;;;11.82;3.67;;;;;;;;;;5050689;28;20017;-73
2024/03/19 11:46:16;;;;;;;7.28;2.25;;;;;;;;;;5052315;28;20028;-74
2024/03/19 11:48:49;;;;;;;13.43;3.72;;;;;;;;;;5050721;28;20106;-74
2024/03/19 11:51:15;;;;;;;10.63;2.72;;;;;;;;;;5052313;28;20032;-73
2024/03/19 11:53:41;;;;;;;14.50;4.90;;;;;;;;;;5050943;28;20033;-74
2024/03/19 11:56:11;;;;;;;6.97;2.75;;;;;;;;;;5050635;28;20527;-75
2024/03/19 11:58:38;;;;;;;8.88;3.28;;;;;;;;;;5052175;28;20044;-75
2024/03/19 12:01:05;;;;;;;10.93;3.97;;;;;;;;;;5050515;28;20024;-74
2024/03/19 12:03:31;;;;;;;8.27;2.45;;;;;;;;;;5052097;28;20535;-74
2024/03/19 12:05:57;;;;;;;12.63;3.53;;;;;;;;;;5051778;28;20071;-74
2024/03/19 12:08:23;;;;;;;9.70;3.50;;;;;;;;;;5050710;28;20026;-75
2024/03/19 12:10:49;;;;;;;9.20;3.55;;;;;;;;;;5051883;28;20032;-75
2024/03/19 12:13:15;;;;;;;8.60;3.00;;;;;;;;;;5051439;28;20118;-74
2024/03/19 12:15:41;;;;;;;10.07;3.58;;;;;;;;;;5051735;28;20540;-74
2024/03/19 12:18:09;;;;;;;9.30;3.33;;;;;;;;;;5050383;28;20460;-75
2024/03/19 12:20:35;;;;;;;9.25;2.90;;;;;;;;;;5050569;28;20487;-75
2024/03/19 12:23:01;;;;;;;9.35;2.95;;;;;;;;;;5051754;28;20032;-75
2024/03/19 12:25:30;;;;;;;6.55;2.15;;;;;;;;;;5051861;28;20021;-74
2024/03/19 12:27:56;;;;;;;10.95;3.00;;;;;;;;;;5050204;28;20031;-74
2024/03/19 12:30:22;;;;;;;9.27;3.10;;;;;;;;;;5052934;28;20017;-74
2024/03/19 12:33:00;;;;;;;12.05;3.20;;;;;;;;;;5051315;28;20055;-75
2024/03/19 12:35:30;;;;;;;11.48;3.80;;;;;;;;;;5052963;28;20025;-74
2024/03/19 12:37:56;;;;;;;8.43;3.30;;;;;;;;;;5052030;28;20021;-74
2024/03/19 12:40:23;;;;;;;9.27;2.80;;;;;;;;;;5052179;28;20035;-74
2024/03/19 12:42:49;;;;;;;8.57;2.58;;;;;;;;;;5050087;28;20051;-74
2024/03/19 12:45:17;;;;;;;8.13;3.55;;;;;;;;;;5050366;28;20021;-74
2024/03/19 12:47:44;;;;;;;10.68;3.45;;;;;;;;;;5051665;28;20020;-74
2024/03/19 12:50:10;;;;;;;9.00;3.88;;;;;;;;;;5050144;28;20048;-75
2024/03/19 12:52:36;;;;;;;9.90;3.17;;;;;;;;;;5051309;28;20037;-74
2024/03/19 12:55:02;;;;;;;10.95;4.03;;;;;;;;;;5050109;28;20458;-74
2024/03/19 12:57:28;;;;;;;9.20;3.65;;;;;;;;;;5051411;28;20381;-74
2024/03/19 12:59:54;;;;;;;10.40;3.60;;;;;;;;;;5052904;28;20044;-75
2024/03/19 13:02:20;;;;;;;7.13;2.38;;;;;;;;;;5054001;28;20468;-74
2024/03/19 13:04:47;;;;;;;7.55;2.67;;;;;;;;;;5055290;28;20029;-75
2024/03/19 13:07:13;;;;;;;9.50;3.10;;;;;;;;;;5053732;28;20492;-75
2024/03/19 13:09:39;;;;;;;9.90;3.45;;;;;;;;;;5053984;28;20021;-75
2024/03/19 13:12:05;;;;;;;11.25;3.03;;;;;;;;;;5053579;28;20358;-75
2024/03/19 13:14:31;;;;;;;8.55;3.03;;;;;;;;;;5053726;28;20040;-75
2024/03/19 13:16:57;;;;;;;9.00;2.75;;;;;;;;;;5053289;28;20021;-75
2024/03/19 13:19:25;;;;;;;8.75;2.35;;;;;;;;;;5055104;28;20029;-75
2024/03/19 13:21:52;;;;;;;9.77;2.17;;;;;;;;;;5053502;28;20375;-75
2024/03/19 13:24:18;;;;;;;6.53;2.40;;;;;;;;;;5053899;28;20116;-74
2024/03/19 13:26:44;;;;;;;8.15;1.92;;;;;;;;;;5055305;28;20049;-75
2024/03/19 13:29:10;;;;;;;6.00;1.60;;;;;;;;;;5054785;28;20104;-75
2024/03/19 13:31:36;;;;;;;12.75;2.28;;;;;;;;;;5054840;28;20021;-75
2024/03/19 13:34:02;;;;;;;8.82;2.67;;;;;;;;;;5053128;28;20052;-75
2024/03/19 13:36:29;;;;;;;10.23;3.03;;;;;;;;;;5055001;28;20094;-75
2024/03/19 13:38:54;;;;;;;10.90;2.85;;;;;;;;;;5052968;28;20126;-74
2024/03/19 13:41:24;;;;;;;7.00;2.22;;;;;;;;;;5053243;28;20471;-74
2024/03/19 13:43:53;;;;;;;10.43;3.00;;;;;;;;;;5053227;28;20029;-74
2024/03/19 13:46:19;;;;;;;9.57;2.78;;;;;;;;;;5053262;28;20684;-74
2024/03/19 13:48:45;;;;;;;13.68;2.40;;;;;;;;;;5052857;28;20031;-75
2024/03/19 13:51:11;;;;;;;12.20;3.65;;;;;;;;;;5052871;28;20025;-75
2024/03/19 13:53:37;;;;;;;8.63;3.00;;;;;;;;;;5054302;28;20373;-75
2024/03/19 13:56:04;;;;;;;13.38;3.55;;;;;;;;;;5052763;28;20457;-75
2024/03/19 13:58:30;;;;;;;9.25;2.88;;;;;;;;;;5052971;28;20182;-74
2024/03/19 14:01:01;;;;;;;7.88;2.95;;;;;;;;;;5054182;28;20461;-75
2024/03/19 14:03:27;;;;;;;9.05;3.35;;;;;;;;;;5052971;28;20115;-74
2024/03/19 14:05:53;;;;;;;11.65;2.53;;;;;;;;;;5054230;28;20021;-74
2024/03/19 14:08:20;;;;;;;9.45;3.17;;;;;;;;;;5052724;28;20032;-75
2024/03/19 14:10:47;;;;;;;11.18;2.42;;;;;;;;;;5052572;28;20120;-74
2024/03/19 14:13:14;;;;;;;8.48;2.67;;;;;;;;;;5051918;28;20108;-74
2024/03/19 14:15:40;;;;;;;7.95;2.97;;;;;;;;;;5052740;28;20393;-74
2024/03/19 14:18:07;;;;;;;8.95;2.35;;;;;;;;;;5053620;28;20112;-74
2024/03/19 14:20:37;;;;;;;13.10;3.13;;;;;;;;;;5052499;28;20429;-75
2024/03/19 14:23:03;;;;;;;;;;;;;;;;;;5053367;28;20060;-74